Time;durP1;ratioP1;P1;durP2;ratioP2;P2;SDS_P1;SDS_P2;PMS_P1;PMS_P2;Temp;Humidity;BMP_temperature;BMP_pressure;BME280_temperature;BME280_humidity;BME280_pressure;Samples;Min_cycle;Max_cycle;Signal;HPM_P1;HPM_P2
2021/05/12 00:02:25;;;;;;;1.00;0.45;;;17.10;66.40;;;;;;6158869;23;20009;-74
2021/05/12 00:04:51;;;;;;;0.73;0.55;;;17.10;66.40;;;;;;6158207;23;20092;-74
2021/05/12 00:07:18;;;;;;;1.38;0.50;;;17.10;66.50;;;;;;6168027;23;20009;-73
2021/05/12 00:09:44;;;;;;;1.65;0.68;;;17.10;66.50;;;;;;6168210;23;20403;-74
2021/05/12 00:12:10;;;;;;;1.98;0.50;;;17.10;66.40;;;;;;6168759;23;20040;-74
2021/05/12 00:14:37;;;;;;;1.23;0.57;;;17.10;66.40;;;;;;6168838;23;20016;-74
2021/05/12 00:17:04;;;;;;;0.80;0.50;;;17.10;66.40;;;;;;6168169;23;20410;-74
2021/05/12 00:19:32;;;;;;;1.50;0.80;;;17.10;66.40;;;;;;6157891;23;20026;-74
2021/05/12 00:24:26;;;;;;;1.58;0.73;;;17.10;66.40;;;;;;6168105;23;20080;-75
2021/05/12 00:26:52;;;;;;;1.10;0.57;;;17.10;66.40;;;;;;6157150;23;20017;-74
2021/05/12 00:29:17;;;;;;;2.00;1.05;;;17.00;66.40;;;;;;6168039;23;20044;-74
2021/05/12 00:31:44;;;;;;;1.20;0.80;;;17.10;66.50;;;;;;6168460;23;20013;-74
2021/05/12 00:34:10;;;;;;;1.73;0.85;;;17.10;66.50;;;;;;6168026;23;20064;-75
2021/05/12 00:36:37;;;;;;;1.15;0.70;;;17.10;66.50;;;;;;6158002;23;20064;-74
2021/05/12 00:39:07;;;;;;;0.93;0.80;;;17.00;66.40;;;;;;6168324;23;20032;-74
2021/05/12 00:41:37;;;;;;;1.40;0.80;;;17.00;66.40;;;;;;6167813;23;20009;-74
2021/05/12 00:44:05;;;;;;;1.77;1.02;;;17.10;66.40;;;;;;6159508;23;20010;-74
2021/05/12 00:46:31;;;;;;;1.92;0.93;;;17.00;66.40;;;;;;6168175;23;20394;-74
2021/05/12 00:48:57;;;;;;;1.70;1.00;;;17.10;66.50;;;;;;6167895;23;20088;-74
2021/05/12 00:51:23;;;;;;;1.23;0.88;;;17.10;66.40;;;;;;6163056;23;20021;-74
2021/05/12 00:53:48;;;;;;;1.52;0.80;;;17.10;66.40;;;;;;6158026;23;20018;-74
2021/05/12 00:56:15;;;;;;;1.25;0.90;;;17.10;66.40;;;;;;6168070;23;20016;-74
2021/05/12 00:58:41;;;;;;;1.23;1.10;;;17.10;66.40;;;;;;6167579;23;20021;-74
2021/05/12 01:01:08;;;;;;;1.75;0.90;;;17.00;66.40;;;;;;6168393;23;20092;-74
2021/05/12 01:03:34;;;;;;;1.85;1.23;;;17.00;66.30;;;;;;6168226;23;20070;-74
2021/05/12 01:06:02;;;;;;;1.30;1.10;;;17.10;66.40;;;;;;6143845;23;20009;-74
2021/05/12 01:08:29;;;;;;;1.42;1.02;;;17.10;66.40;;;;;;6169822;23;20084;-74
2021/05/12 01:10:58;;;;;;;2.30;1.02;;;17.00;66.30;;;;;;6169846;23;20040;-74
2021/05/12 01:13:25;;;;;;;2.38;1.40;;;17.10;66.40;;;;;;6159713;23;20013;-74
2021/05/12 01:15:51;;;;;;;1.30;0.90;;;17.00;66.30;;;;;;6159906;23;20028;-74
2021/05/12 01:18:20;;;;;;;1.75;1.10;;;17.10;66.30;;;;;;6159799;23;20014;-74
2021/05/12 01:20:59;;;;;;;2.22;1.50;;;17.00;66.30;;;;;;6160219;23;20068;-74
2021/05/12 01:23:29;;;;;;;2.10;1.58;;;17.00;66.30;;;;;;6170274;23;20013;-74
2021/05/12 01:25:56;;;;;;;2.10;1.30;;;17.00;66.30;;;;;;6170378;23;20013;-74
2021/05/12 01:28:25;;;;;;;2.25;1.25;;;17.00;66.30;;;;;;6169906;23;20096;-75
2021/05/12 01:31:16;;;;;;;1.70;1.20;;;17.10;66.30;;;;;;6143895;23;20310;-74
2021/05/12 01:33:42;;;;;;;2.00;1.13;;;17.00;66.20;;;;;;6169319;23;20017;-74
2021/05/12 01:36:12;;;;;;;3.10;1.40;;;17.00;66.20;;;;;;6169610;23;20040;-74
2021/05/12 01:38:40;;;;;;;1.85;1.20;;;17.00;66.20;;;;;;6170320;23;20021;-74
2021/05/12 01:41:06;;;;;;;2.08;1.33;;;17.00;66.80;;;;;;6143862;23;20045;-74
2021/05/12 01:43:34;;;;;;;2.03;1.05;;;17.00;66.20;;;;;;6169010;23;20345;-74
2021/05/12 01:46:00;;;;;;;1.88;1.25;;;17.00;66.20;;;;;;6169711;23;20009;-74
2021/05/12 01:48:28;;;;;;;2.47;1.13;;;17.00;66.20;;;;;;6169642;23;20013;-74
2021/05/12 01:50:54;;;;;;;2.28;1.20;;;17.00;66.20;;;;;;6166144;23;20020;-74
2021/05/12 01:53:20;;;;;;;2.67;0.95;;;17.00;66.20;;;;;;6168962;23;20438;-74
2021/05/12 01:55:47;;;;;;;1.73;1.10;;;17.00;66.20;;;;;;6169905;23;20024;-74
2021/05/12 01:58:14;;;;;;;2.88;1.40;;;17.00;66.20;;;;;;6169429;23;20009;-73
2021/05/12 02:00:46;;;;;;;1.67;1.25;;;17.00;66.20;;;;;;6159418;23;20018;-74
2021/05/12 02:03:12;;;;;;;2.00;1.05;;;17.00;66.20;;;;;;6169066;23;20404;-75
2021/05/12 02:05:40;;;;;;;3.47;1.23;;;17.00;66.20;;;;;;6168239;23;20024;-74
2021/05/12 02:08:08;;;;;;;3.13;1.27;;;17.00;66.10;;;;;;6158998;23;20303;-75
2021/05/12 02:10:37;;;;;;;1.63;1.15;;;17.00;66.10;;;;;;6159741;23;20013;-74
2021/05/12 02:13:03;;;;;;;1.48;1.00;;;17.00;66.20;;;;;;6169254;23;20009;-74
2021/05/12 02:15:29;;;;;;;1.73;1.17;;;17.00;66.20;;;;;;6159018;23;20025;-74
2021/05/12 02:17:55;;;;;;;1.05;0.95;;;17.00;66.20;;;;;;6168821;23;20260;-74
2021/05/12 02:20:29;;;;;;;3.30;1.52;;;17.00;66.20;;;;;;6169496;23;20418;-74
2021/05/12 02:22:55;;;;;;;1.67;0.90;;;17.00;66.20;;;;;;6159580;23;20018;-74
2021/05/12 02:25:22;;;;;;;2.25;1.10;;;17.00;66.20;;;;;;6158739;23;20418;-74
2021/05/12 02:27:48;;;;;;;1.25;0.98;;;17.00;66.20;;;;;;6159266;23;20036;-74
2021/05/12 02:30:14;;;;;;;1.48;1.00;;;17.00;66.20;;;;;;6159164;23;20009;-74
2021/05/12 02:32:40;;;;;;;2.03;1.23;;;17.00;66.20;;;;;;6169450;23;20013;-74
2021/05/12 02:35:08;;;;;;;1.20;1.10;;;17.00;66.20;;;;;;6158860;23;20014;-74
2021/05/12 02:37:35;;;;;;;2.28;1.20;;;17.00;66.20;;;;;;6169378;23;20013;-74
2021/05/12 02:40:03;;;;;;;1.50;1.15;;;16.90;66.20;;;;;;6168865;23;20247;-74
2021/05/12 02:42:29;;;;;;;2.05;1.20;;;17.00;66.20;;;;;;6158710;23;20024;-74
2021/05/12 02:44:55;;;;;;;1.45;1.10;;;17.00;66.20;;;;;;6168714;23;20014;-74
2021/05/12 02:47:21;;;;;;;1.95;1.20;;;17.00;66.20;;;;;;6169404;23;20013;-73
2021/05/12 02:49:46;;;;;;;1.90;1.33;;;16.90;66.10;;;;;;6158664;23;20009;-74
2021/05/12 02:52:12;;;;;;;1.52;1.25;;;17.00;66.10;;;;;;6158633;23;20048;-74
2021/05/12 02:54:38;;;;;;;2.38;1.25;;;17.00;66.10;;;;;;6169026;23;20084;-74
2021/05/12 02:57:05;;;;;;;1.77;1.30;;;17.00;66.10;;;;;;6158825;23;20095;-74
2021/05/12 02:59:31;;;;;;;1.55;1.10;;;17.00;66.10;;;;;;6168868;23;20010;-74
2021/05/12 03:01:57;;;;;;;1.90;1.13;;;17.00;66.10;;;;;;6159455;23;20017;-74
2021/05/12 03:04:22;;;;;;;1.92;1.23;;;17.00;66.20;;;;;;6168832;23;20374;-74
2021/05/12 03:06:49;;;;;;;1.63;1.35;;;16.90;66.10;;;;;;6158636;23;20037;-74
2021/05/12 03:09:15;;;;;;;2.17;1.20;;;16.90;66.10;;;;;;6158386;23;20269;-74
2021/05/12 03:11:42;;;;;;;1.45;0.95;;;16.90;66.10;;;;;;6168655;23;20423;-74
2021/05/12 03:14:08;;;;;;;2.38;1.70;;;17.00;66.20;;;;;;6158774;23;20013;-74
2021/05/12 03:16:35;;;;;;;2.95;1.80;;;16.90;66.20;;;;;;6169259;23;20010;-74
2021/05/12 03:19:01;;;;;;;2.05;1.35;;;16.90;66.20;;;;;;6168342;23;20013;-74
2021/05/12 03:21:27;;;;;;;2.40;1.58;;;16.90;66.30;;;;;;6158903;23;20013;-74
2021/05/12 03:23:53;;;;;;;1.75;1.45;;;16.90;66.30;;;;;;6168775;23;20013;-74
2021/05/12 03:26:19;;;;;;;1.70;1.35;;;16.90;66.30;;;;;;6169148;23;20048;-74
2021/05/12 03:28:45;;;;;;;2.17;1.98;;;16.90;66.30;;;;;;6168041;23;20044;-74
2021/05/12 03:31:13;;;;;;;2.03;1.48;;;16.90;66.30;;;;;;6168441;23;20010;-74
2021/05/12 03:33:40;;;;;;;2.00;1.80;;;16.90;66.30;;;;;;6158487;23;20025;-73
2021/05/12 03:36:06;;;;;;;2.47;1.85;;;16.90;66.30;;;;;;6169151;23;20037;-74
2021/05/12 03:38:33;;;;;;;2.15;1.42;;;16.90;66.30;;;;;;6158793;23;20095;-73
2021/05/12 03:40:59;;;;;;;3.15;1.85;;;16.90;66.30;;;;;;6159233;23;20021;-74
2021/05/12 03:43:25;;;;;;;2.00;1.70;;;16.90;66.30;;;;;;6169192;23;20013;-74
2021/05/12 03:45:51;;;;;;;2.13;1.70;;;16.90;66.30;;;;;;6168394;23;20072;-74
2021/05/12 03:48:17;;;;;;;1.90;1.50;;;16.90;66.30;;;;;;6168772;23;20009;-74
2021/05/12 03:50:43;;;;;;;2.00;1.50;;;16.90;66.30;;;;;;6165320;23;20059;-74
2021/05/12 03:53:10;;;;;;;1.58;1.48;;;16.90;66.30;;;;;;6167761;23;20303;-74
2021/05/12 03:55:37;;;;;;;2.17;1.63;;;16.90;66.30;;;;;;6157901;23;20477;-74
2021/05/12 03:58:04;;;;;;;1.67;1.25;;;16.90;66.20;;;;;;6157959;23;20024;-74
2021/05/12 04:00:30;;;;;;;1.80;1.42;;;16.90;66.10;;;;;;6158296;23;20013;-74
2021/05/12 04:02:57;;;;;;;2.30;1.48;;;16.90;66.10;;;;;;6168037;23;20124;-74
2021/05/12 04:05:23;;;;;;;1.75;1.17;;;16.90;66.10;;;;;;6167714;23;20419;-74
2021/05/12 04:07:49;;;;;;;2.25;1.50;;;16.90;66.10;;;;;;6158012;23;20355;-74
2021/05/12 04:10:16;;;;;;;2.17;1.70;;;16.90;66.00;;;;;;6157771;23;20017;-74
2021/05/12 04:12:43;;;;;;;2.10;1.27;;;16.90;66.00;;;;;;6158476;23;20025;-74
2021/05/12 04:15:10;;;;;;;1.75;1.50;;;16.90;66.10;;;;;;6158192;23;20052;-73
2021/05/12 04:17:37;;;;;;;2.42;1.88;;;16.90;66.10;;;;;;6168893;23;20016;-74
2021/05/12 04:20:05;;;;;;;2.72;1.55;;;16.90;66.10;;;;;;6168285;23;20013;-74
2021/05/12 04:22:36;;;;;;;2.13;1.47;;;16.90;66.20;;;;;;6167622;23;20005;-74
2021/05/12 04:25:07;;;;;;;2.00;1.77;;;16.90;66.20;;;;;;6168618;23;20312;-74
2021/05/12 04:27:33;;;;;;;1.98;1.70;;;16.90;66.20;;;;;;6158976;23;20021;-74
2021/05/12 04:29:59;;;;;;;2.50;1.67;;;16.90;66.20;;;;;;6167986;23;20018;-74
2021/05/12 04:32:25;;;;;;;2.35;1.90;;;16.90;66.20;;;;;;6168289;23;20014;-74
2021/05/12 04:34:50;;;;;;;2.50;2.03;;;16.80;66.10;;;;;;6167659;23;20023;-74
2021/05/12 04:37:16;;;;;;;2.38;1.80;;;16.80;66.10;;;;;;6167967;23;20018;-74
2021/05/12 04:39:42;;;;;;;2.65;2.13;;;16.90;66.20;;;;;;6118013;23;20265;-73
2021/05/12 04:42:08;;;;;;;2.28;1.70;;;16.80;66.10;;;;;;6167792;23;20009;-74
2021/05/12 04:44:34;;;;;;;2.00;1.60;;;16.90;66.20;;;;;;6142538;23;20021;-74
2021/05/12 04:47:00;;;;;;;2.58;1.70;;;16.80;66.20;;;;;;6158326;23;20017;-74
2021/05/12 04:49:26;;;;;;;2.53;1.90;;;16.90;66.20;;;;;;6167618;23;20015;-74
2021/05/12 04:51:52;;;;;;;2.70;2.20;;;16.90;66.20;;;;;;6160224;23;20032;-74
2021/05/12 04:54:18;;;;;;;2.58;2.28;;;16.90;66.20;;;;;;6158835;23;20044;-73
2021/05/12 04:56:43;;;;;;;3.38;2.33;;;16.80;66.20;;;;;;6168065;23;20013;-74
2021/05/12 04:59:09;;;;;;;2.35;1.70;;;16.80;66.20;;;;;;6159332;23;20053;-74
2021/05/12 05:01:35;;;;;;;5.18;2.53;;;16.80;66.20;;;;;;6158132;23;20353;-74
2021/05/12 05:04:02;;;;;;;3.88;2.15;;;16.80;66.20;;;;;;6132643;23;20010;-74
2021/05/12 05:06:28;;;;;;;3.03;2.10;;;16.80;66.20;;;;;;6157650;23;20013;-74
2021/05/12 05:08:54;;;;;;;3.30;2.22;;;16.80;66.10;;;;;;6158207;23;20033;-74
2021/05/12 05:11:20;;;;;;;2.65;2.10;;;16.80;66.20;;;;;;6158023;23;20021;-74
2021/05/12 05:13:46;;;;;;;2.35;2.00;;;16.80;66.10;;;;;;6168178;23;20044;-74
2021/05/12 05:16:12;;;;;;;2.08;1.60;;;16.80;66.10;;;;;;6168056;23;20010;-74
2021/05/12 05:18:39;;;;;;;2.53;1.80;;;16.80;66.10;;;;;;6167661;23;20069;-74
2021/05/12 05:21:05;;;;;;;2.25;1.70;;;16.80;66.10;;;;;;6167247;23;20006;-74
2021/05/12 05:23:37;;;;;;;1.60;1.50;;;16.80;66.10;;;;;;6132711;23;20018;-74
2021/05/12 05:26:03;;;;;;;2.70;1.98;;;16.80;66.10;;;;;;6168026;23;20020;-74
2021/05/12 05:28:31;;;;;;;2.05;1.65;;;16.80;66.10;;;;;;6167288;23;20040;-74
2021/05/12 05:30:57;;;;;;;2.00;1.50;;;16.80;66.00;;;;;;6167811;23;20010;-74
2021/05/12 05:33:22;;;;;;;1.75;1.40;;;16.80;66.00;;;;;;6167850;23;20104;-74
2021/05/12 05:35:49;;;;;;;2.05;1.20;;;16.80;66.00;;;;;;6167328;23;20445;-74
2021/05/12 05:38:14;;;;;;;2.10;1.33;;;16.80;66.00;;;;;;6167705;23;20014;-74
2021/05/12 05:40:40;;;;;;;1.42;1.30;;;16.80;65.90;;;;;;6168017;23;20013;-74
2021/05/12 05:43:08;;;;;;;2.33;1.40;;;16.80;65.90;;;;;;6168067;23;20140;-74
2021/05/12 05:45:34;;;;;;;1.92;1.30;;;16.80;66.00;;;;;;6167873;23;20029;-74
2021/05/12 05:48:00;;;;;;;2.67;1.27;;;16.80;66.00;;;;;;6158641;23;20014;-74
2021/05/12 05:50:26;;;;;;;2.47;1.52;;;16.80;65.90;;;;;;6166960;23;20432;-74
2021/05/12 05:52:56;;;;;;;2.40;1.20;;;16.80;65.90;;;;;;6159872;23;20013;-73
2021/05/12 05:55:23;;;;;;;2.35;1.42;;;16.80;65.90;;;;;;6159946;23;20101;-74
2021/05/12 05:57:50;;;;;;;2.22;1.30;;;16.80;65.80;;;;;;6169823;23;20295;-74
2021/05/12 06:00:19;;;;;;;2.05;1.23;;;16.90;65.90;;;;;;6159522;23;20014;-74
2021/05/12 06:02:45;;;;;;;1.95;1.50;;;16.80;65.80;;;;;;6143551;23;20009;-74
2021/05/12 06:05:11;;;;;;;1.58;1.02;;;16.80;65.80;;;;;;6169404;23;20088;-74
2021/05/12 06:07:38;;;;;;;2.35;1.08;;;16.90;65.90;;;;;;6143552;23;20040;-74
2021/05/12 06:10:05;;;;;;;2.40;1.45;;;16.90;65.80;;;;;;6169711;23;20010;-74
2021/05/12 06:12:31;;;;;;;2.80;1.33;;;16.90;65.70;;;;;;6160341;23;20083;-74
2021/05/12 06:14:58;;;;;;;2.65;1.10;;;16.90;65.70;;;;;;6169922;23;20009;-74
2021/05/12 06:17:24;;;;;;;2.00;1.00;;;16.90;65.70;;;;;;6169294;23;20481;-74
2021/05/12 06:19:50;;;;;;;2.47;1.10;;;16.90;65.70;;;;;;6159148;23;20017;-74
2021/05/12 06:22:17;;;;;;;1.83;1.00;;;16.90;65.70;;;;;;6159177;23;20014;-74
2021/05/12 06:24:43;;;;;;;1.10;0.80;;;16.90;65.70;;;;;;6159752;23;20013;-74
2021/05/12 06:27:10;;;;;;;2.38;1.08;;;16.90;65.70;;;;;;6168861;23;20453;-74
2021/05/12 06:29:40;;;;;;;1.50;0.82;;;16.90;65.60;;;;;;6169299;23;20024;-74
2021/05/12 06:32:08;;;;;;;2.47;0.98;;;17.00;65.70;;;;;;6159061;23;20440;-74
2021/05/12 06:34:35;;;;;;;3.83;0.93;;;17.00;65.70;;;;;;6169655;23;20423;-74
2021/05/12 06:37:02;;;;;;;2.28;0.73;;;17.00;65.70;;;;;;6169479;23;20084;-74
2021/05/12 06:39:28;;;;;;;2.40;0.70;;;17.00;65.70;;;;;;6169390;23;20009;-74
2021/05/12 06:41:54;;;;;;;2.25;1.00;;;17.00;65.70;;;;;;6168965;23;20160;-74
2021/05/12 06:44:21;;;;;;;2.53;0.73;;;17.00;65.70;;;;;;6169043;23;20109;-74
2021/05/12 06:46:47;;;;;;;3.13;1.20;;;17.00;65.70;;;;;;6159553;23;20529;-74
2021/05/12 06:49:12;;;;;;;1.95;0.73;;;17.10;65.70;;;;;;6159389;23;20021;-74
2021/05/12 06:51:38;;;;;;;3.13;1.08;;;17.00;65.60;;;;;;6163372;23;20403;-74
2021/05/12 06:54:05;;;;;;;1.38;0.68;;;17.10;65.60;;;;;;6158759;23;20446;-74
2021/05/12 06:56:31;;;;;;;1.38;0.50;;;17.10;66.30;;;;;;6168805;23;20407;-74
2021/05/12 06:58:56;;;;;;;3.05;0.63;;;17.10;65.60;;;;;;6168589;23;20020;-74
2021/05/12 07:01:22;;;;;;;1.25;0.63;;;17.10;65.60;;;;;;6168666;23;20081;-74
2021/05/12 07:03:48;;;;;;;3.13;0.80;;;17.10;65.70;;;;;;6118754;23;20303;-74
2021/05/12 07:06:14;;;;;;;1.13;0.45;;;17.10;65.60;;;;;;6168848;23;20025;-74
2021/05/12 07:08:40;;;;;;;2.25;0.85;;;17.10;65.60;;;;;;6158852;23;20014;-74
2021/05/12 07:11:07;;;;;;;1.52;0.60;;;17.10;65.60;;;;;;6168794;23;20071;-74
2021/05/12 07:13:33;;;;;;;2.75;0.60;;;17.10;65.70;;;;;;6168753;23;20010;-74
2021/05/12 07:16:01;;;;;;;1.58;0.57;;;17.20;65.70;;;;;;6159664;23;20284;-74
2021/05/12 07:18:27;;;;;;;2.55;0.70;;;17.20;65.70;;;;;;6168443;23;20014;-74
2021/05/12 07:20:53;;;;;;;1.27;0.60;;;17.20;65.60;;;;;;6168964;23;20076;-74
2021/05/12 07:23:21;;;;;;;2.50;0.60;;;17.20;65.60;;;;;;6169064;23;20028;-74
2021/05/12 07:25:48;;;;;;;1.80;1.10;;;17.20;65.50;;;;;;6169366;23;20009;-74
2021/05/12 07:28:15;;;;;;;2.92;0.93;;;17.20;65.60;;;;;;6168571;23;20021;-74
2021/05/12 07:30:44;;;;;;;1.42;0.55;;;17.20;65.50;;;;;;6159539;23;20009;-74
2021/05/12 07:33:11;;;;;;;1.92;0.70;;;17.30;65.50;;;;;;6168205;23;20013;-74
2021/05/12 07:35:37;;;;;;;3.85;1.10;;;17.30;65.50;;;;;;6169001;23;20082;-74
2021/05/12 07:38:11;;;;;;;1.90;0.60;;;17.30;65.50;;;;;;6158825;23;20089;-74
2021/05/12 07:40:43;;;;;;;1.73;0.57;;;17.30;65.50;;;;;;6158626;23;20025;-74
2021/05/12 07:43:10;;;;;;;3.53;0.90;;;17.40;65.50;;;;;;6168355;23;20017;-74
2021/05/12 07:45:40;;;;;;;2.20;0.75;;;17.30;65.50;;;;;;6168661;23;20013;-74
2021/05/12 07:48:08;;;;;;;0.80;0.60;;;17.40;65.50;;;;;;6169222;23;20013;-74
2021/05/12 07:50:36;;;;;;;3.00;0.70;;;17.40;65.50;;;;;;6158580;23;20013;-75
2021/05/12 07:53:05;;;;;;;1.70;0.63;;;17.40;65.50;;;;;;6158731;23;20392;-74
2021/05/12 07:55:46;;;;;;;2.88;0.70;;;17.40;65.50;;;;;;6158471;23;20020;-74
2021/05/12 07:58:13;;;;;;;2.42;0.80;;;17.40;65.50;;;;;;6158059;23;20486;-75
2021/05/12 08:00:43;;;;;;;2.50;0.63;;;17.40;65.50;;;;;;6158748;23;20025;-74
2021/05/12 08:03:08;;;;;;;2.70;0.70;;;17.40;65.50;;;;;;6168454;23;20467;-75
2021/05/12 08:05:37;;;;;;;2.60;0.93;;;17.40;65.60;;;;;;6168080;23;20009;-74
2021/05/12 08:08:22;;;;;;;2.22;0.70;;;17.50;65.60;;;;;;6157697;23;20013;-74
2021/05/12 08:10:55;;;;;;;2.50;0.70;;;17.40;65.60;;;;;;6158229;23;20100;-75
2021/05/12 08:13:21;;;;;;;1.60;0.60;;;17.40;65.70;;;;;;6168890;23;20017;-75
2021/05/12 08:16:05;;;;;;;2.75;0.80;;;17.50;65.70;;;;;;6158060;23;20014;-74
2021/05/12 08:18:34;;;;;;;3.22;1.02;;;17.40;65.60;;;;;;6168141;23;20025;-75
2021/05/12 08:21:03;;;;;;;2.47;0.90;;;17.50;65.70;;;;;;6168593;23;20287;-74
2021/05/12 08:23:31;;;;;;;3.33;0.80;;;17.50;65.70;;;;;;6168100;23;20019;-75
2021/05/12 08:25:57;;;;;;;4.22;0.73;;;17.50;65.70;;;;;;6158534;23;20018;-75
2021/05/12 08:28:28;;;;;;;2.83;0.70;;;17.40;65.70;;;;;;6158800;23;20049;-75
2021/05/12 08:30:56;;;;;;;2.15;0.90;;;17.40;65.60;;;;;;6167737;23;20021;-74
2021/05/12 08:33:22;;;;;;;2.80;0.75;;;17.40;65.60;;;;;;6167922;23;20017;-75
2021/05/12 08:36:08;;;;;;;3.15;0.55;;;17.50;65.70;;;;;;6137608;23;20028;-74
2021/05/12 08:38:37;;;;;;;3.22;0.88;;;17.50;65.70;;;;;;6168267;23;20017;-75
2021/05/12 08:41:03;;;;;;;3.33;0.88;;;17.50;65.70;;;;;;6168561;23;20387;-74
2021/05/12 08:43:30;;;;;;;2.70;0.73;;;17.50;66.20;;;;;;6167622;23;20349;-75
2021/05/12 08:45:57;;;;;;;2.05;0.80;;;17.50;65.60;;;;;;6168405;23;20033;-75
2021/05/12 08:48:24;;;;;;;3.20;0.80;;;17.50;65.60;;;;;;6167899;23;20009;-74
2021/05/12 08:50:52;;;;;;;4.25;0.88;;;17.50;65.60;;;;;;6157690;23;20024;-75
2021/05/12 08:53:18;;;;;;;2.28;0.90;;;17.50;65.60;;;;;;6157894;23;20335;-74
2021/05/12 08:55:45;;;;;;;2.75;0.65;;;17.50;65.60;;;;;;6158013;23;20383;-75
2021/05/12 08:58:11;;;;;;;2.65;0.52;;;17.50;65.60;;;;;;6167747;23;20009;-74
2021/05/12 09:00:39;;;;;;;1.60;0.52;;;17.50;65.60;;;;;;6132765;23;20080;-74
2021/05/12 09:03:05;;;;;;;3.70;1.10;;;17.50;65.60;;;;;;6168383;23;20009;-75
2021/05/12 09:05:32;;;;;;;3.22;0.80;;;17.50;65.50;;;;;;6167892;23;20131;-74
2021/05/12 09:07:57;;;;;;;2.45;0.80;;;17.50;65.50;;;;;;6142970;23;20278;-74
2021/05/12 09:10:23;;;;;;;2.38;0.60;;;17.50;65.50;;;;;;6158395;23;20044;-75
2021/05/12 09:12:59;;;;;;;4.82;1.10;;;17.50;65.50;;;;;;6157956;23;20302;-75
2021/05/12 09:15:27;;;;;;;2.70;0.75;;;17.50;65.50;;;;;;6167833;23;20415;-75
2021/05/12 09:17:55;;;;;;;3.58;1.02;;;17.50;65.40;;;;;;6167461;23;20088;-74
2021/05/12 09:20:24;;;;;;;4.30;1.05;;;17.50;65.50;;;;;;6168435;23;20014;-75
2021/05/12 09:23:04;;;;;;;5.07;1.00;;;17.60;65.50;;;;;;6167363;23;20043;-74
2021/05/12 09:25:35;;;;;;;3.33;0.95;;;17.60;65.50;;;;;;6157840;23;20017;-75
2021/05/12 09:28:14;;;;;;;4.57;0.85;;;17.60;65.40;;;;;;6169752;23;20009;-74
2021/05/12 09:30:44;;;;;;;3.72;0.80;;;17.50;65.40;;;;;;6169736;23;20020;-75
2021/05/12 09:33:27;;;;;;;1.83;0.70;;;17.50;65.40;;;;;;6160541;23;20032;-74
2021/05/12 09:35:58;;;;;;;2.63;0.95;;;17.50;65.40;;;;;;6170085;23;20009;-75
2021/05/12 09:38:26;;;;;;;4.70;1.15;;;17.50;65.40;;;;;;6170435;23;20463;-74
2021/05/12 09:41:34;;;;;;;3.58;0.80;;;17.50;65.40;;;;;;6169634;23;20009;-75
2021/05/12 09:44:01;;;;;;;2.92;0.98;;;17.60;65.40;;;;;;6144696;23;20025;-75
2021/05/12 09:46:34;;;;;;;4.80;0.95;;;17.60;65.40;;;;;;6170095;23;20013;-75
2021/05/12 09:49:00;;;;;;;3.42;0.93;;;17.60;65.40;;;;;;6160287;23;20291;-75
2021/05/12 09:51:40;;;;;;;3.53;0.90;;;17.60;65.40;;;;;;6165419;23;20040;-75
2021/05/12 09:54:17;;;;;;;4.93;1.00;;;17.60;65.40;;;;;;6159817;23;20024;-75
2021/05/12 09:56:52;;;;;;;3.70;0.90;;;17.60;65.40;;;;;;6160325;23;20066;-75
2021/05/12 09:59:28;;;;;;;4.97;1.20;;;17.60;65.40;;;;;;6169503;23;20009;-75
2021/05/12 10:01:56;;;;;;;3.80;0.68;;;17.60;65.30;;;;;;6159469;23;20009;-75
2021/05/12 10:04:39;;;;;;;2.38;0.70;;;17.60;65.30;;;;;;6159813;23;20037;-75
2021/05/12 10:07:24;;;;;;;5.00;0.93;;;17.60;65.30;;;;;;6170180;23;20458;-75
2021/05/12 10:09:52;;;;;;;5.65;1.45;;;17.70;65.30;;;;;;6144109;23;20013;-74
2021/05/12 10:12:27;;;;;;;4.97;1.17;;;17.60;65.30;;;;;;6168944;23;20284;-75
2021/05/12 10:14:57;;;;;;;4.00;1.23;;;17.60;65.30;;;;;;6159581;23;20420;-75
2021/05/12 10:17:25;;;;;;;4.45;1.00;;;17.60;65.20;;;;;;6159225;23;20409;-75
2021/05/12 10:19:52;;;;;;;5.38;1.15;;;17.60;65.20;;;;;;6144157;23;20104;-75
2021/05/12 10:22:20;;;;;;;5.43;1.38;;;17.60;65.20;;;;;;6169489;23;20048;-75
2021/05/12 10:24:48;;;;;;;4.05;1.25;;;17.60;65.20;;;;;;6158920;23;20431;-75
2021/05/12 10:27:17;;;;;;;2.80;0.85;;;17.70;65.20;;;;;;6168843;23;20017;-75
2021/05/12 10:29:49;;;;;;;6.22;1.38;;;17.70;65.20;;;;;;6169230;23;20037;-75
2021/05/12 10:32:18;;;;;;;4.22;1.20;;;17.70;65.10;;;;;;6169669;23;20013;-75
2021/05/12 10:34:44;;;;;;;2.88;0.98;;;17.70;65.10;;;;;;6134873;23;20095;-75
2021/05/12 10:37:19;;;;;;;5.53;1.10;;;17.70;65.20;;;;;;6159207;23;20399;-75
2021/05/12 10:39:48;;;;;;;2.45;0.80;;;17.70;65.10;;;;;;6168780;23;20020;-75
2021/05/12 10:42:33;;;;;;;3.85;1.35;;;17.70;65.10;;;;;;6168951;23;20009;-75
2021/05/12 10:45:01;;;;;;;3.72;0.88;;;17.70;65.10;;;;;;6159686;23;20077;-75
2021/05/12 10:47:37;;;;;;;4.07;0.75;;;17.70;65.10;;;;;;6168950;23;20020;-75
2021/05/12 10:50:04;;;;;;;4.57;1.10;;;17.70;65.00;;;;;;6134561;23;20430;-75
2021/05/12 10:52:30;;;;;;;5.03;0.80;;;17.70;65.70;;;;;;6160830;23;20018;-75
2021/05/12 10:54:56;;;;;;;3.50;1.00;;;17.70;65.00;;;;;;6158635;23;20029;-75
2021/05/12 10:57:45;;;;;;;3.28;1.00;;;17.70;65.00;;;;;;6168896;23;20048;-75
2021/05/12 11:00:11;;;;;;;3.40;1.00;;;17.80;65.00;;;;;;6158800;23;20485;-75
2021/05/12 11:02:49;;;;;;;3.30;0.77;;;17.70;65.00;;;;;;6158791;23;20024;-75
2021/05/12 11:05:15;;;;;;;5.07;1.13;;;17.80;65.00;;;;;;6168911;23;20013;-75
2021/05/12 11:08:17;;;;;;;2.70;0.80;;;17.70;65.00;;;;;;6169387;23;20017;-75
2021/05/12 11:10:49;;;;;;;5.00;1.30;;;17.70;64.90;;;;;;6168808;23;20013;-75
2021/05/12 11:13:23;;;;;;;4.00;1.02;;;17.80;65.00;;;;;;6168731;23;20466;-75
2021/05/12 11:16:00;;;;;;;3.22;0.82;;;17.80;65.00;;;;;;6168679;23;20017;-75
2021/05/12 11:18:39;;;;;;;4.75;1.10;;;17.80;65.00;;;;;;6159458;23;20052;-75
2021/05/12 11:21:22;;;;;;;4.95;0.85;;;17.80;65.00;;;;;;6168931;23;20021;-75
2021/05/12 11:24:04;;;;;;;6.18;1.23;;;17.80;65.00;;;;;;6158289;23;20430;-75
2021/05/12 11:31:55;;;;;;;2.25;0.85;;;17.80;64.90;;;;;;6168568;23;20032;-75
2021/05/12 11:34:21;;;;;;;3.58;0.80;;;17.80;64.90;;;;;;6169289;23;20020;-75
2021/05/12 11:36:47;;;;;;;4.97;1.00;;;17.80;64.90;;;;;;6158208;23;20356;-75
2021/05/12 11:39:13;;;;;;;5.03;1.25;;;17.80;64.90;;;;;;6168549;23;20076;-74
2021/05/12 11:41:41;;;;;;;3.38;0.93;;;17.80;64.90;;;;;;6168660;23;20395;-75
2021/05/12 11:44:07;;;;;;;3.60;0.90;;;17.80;64.90;;;;;;6158936;23;20005;-74
2021/05/12 11:46:37;;;;;;;4.53;0.95;;;17.80;64.90;;;;;;6168792;23;20013;-75
2021/05/12 11:49:04;;;;;;;3.05;0.88;;;17.80;64.90;;;;;;6157638;23;20419;-75
2021/05/12 11:51:32;;;;;;;3.72;1.17;;;17.80;64.80;;;;;;6164360;23;20014;-75
2021/05/12 11:54:00;;;;;;;3.67;0.60;;;17.80;64.80;;;;;;6169088;23;20017;-75
2021/05/12 11:56:26;;;;;;;4.15;1.13;;;17.80;64.80;;;;;;6158428;23;20018;-75
2021/05/12 11:59:01;;;;;;;4.05;1.15;;;17.80;64.70;;;;;;6168016;23;20017;-75
2021/05/12 12:01:29;;;;;;;3.33;0.80;;;17.80;65.30;;;;;;6168290;23;20418;-75
2021/05/12 12:06:29;;;;;;;5.22;1.40;;;17.80;64.60;;;;;;6158957;23;20042;-75
2021/05/12 12:08:54;;;;;;;2.58;0.70;;;17.80;64.60;;;;;;6159307;23;20076;-75
2021/05/12 12:11:21;;;;;;;3.35;0.70;;;17.80;64.60;;;;;;6168510;23;20053;-75
2021/05/12 12:13:58;;;;;;;2.70;0.60;;;17.80;64.60;;;;;;6158334;23;20112;-74
2021/05/12 12:16:24;;;;;;;6.63;1.02;;;17.80;64.60;;;;;;6168183;23;20013;-75
2021/05/12 12:18:51;;;;;;;3.03;0.88;;;17.80;64.70;;;;;;6168748;23;20079;-75
2021/05/12 12:21:29;;;;;;;3.08;0.90;;;17.80;64.60;;;;;;6158765;23;20056;-75
2021/05/12 12:23:56;;;;;;;4.78;0.90;;;17.80;64.60;;;;;;6168390;23;20020;-75
2021/05/12 12:26:24;;;;;;;4.13;1.00;;;17.80;64.60;;;;;;6168018;23;20084;-75
2021/05/12 12:29:09;;;;;;;4.60;0.85;;;17.80;64.60;;;;;;6168083;23;20422;-75
2021/05/12 12:31:42;;;;;;;5.07;1.08;;;17.80;64.60;;;;;;6168041;23;20021;-75
2021/05/12 12:34:16;;;;;;;3.00;0.82;;;17.80;64.60;;;;;;6168381;23;20037;-75
2021/05/12 12:36:56;;;;;;;;;;;17.80;64.50;;;;;;6168545;23;20013;-75
2021/05/12 12:39:56;;;;;;;4.05;1.00;;;17.80;64.50;;;;;;6167943;23;19912;-75
2021/05/12 12:42:28;;;;;;;3.28;0.82;;;17.80;64.50;;;;;;6166010;23;20010;-75
2021/05/12 12:44:55;;;;;;;3.00;0.68;;;17.80;64.60;;;;;;6167974;23;20009;-74
2021/05/12 12:47:23;;;;;;;3.85;0.80;;;17.80;64.60;;;;;;6168041;23;20014;-75
2021/05/12 12:49:55;;;;;;;2.47;0.93;;;17.80;64.60;;;;;;6158532;23;20429;-75
2021/05/12 12:52:33;;;;;;;4.03;0.90;;;17.80;64.60;;;;;;6157637;23;20029;-75
2021/05/12 12:55:06;;;;;;;4.80;1.05;;;17.80;64.60;;;;;;6167873;23;20052;-75
2021/05/12 12:57:36;;;;;;;;;;;17.80;64.60;;;;;;6168551;23;20013;-75
2021/05/12 13:00:17;;;;;;;4.15;1.00;;;17.80;64.60;;;;;;6168374;23;19918;-75
2021/05/12 13:02:56;;;;;;;3.80;0.77;;;17.80;64.50;;;;;;6167754;23;20395;-75
2021/05/12 13:05:23;;;;;;;4.95;1.08;;;17.80;64.40;;;;;;6167447;23;20411;-75
2021/05/12 13:07:49;;;;;;;3.58;1.00;;;17.80;64.40;;;;;;6167498;23;20092;-75